Time;durP1;ratioP1;P1;durP2;ratioP2;P2;SDS_P1;SDS_P2;PMS_P1;PMS_P2;Temp;Humidity;BMP_temperature;BMP_pressure;BME280_temperature;BME280_humidity;BME280_pressure;Samples;Min_cycle;Max_cycle;Signal;HPM_P1;HPM_P2
2023/09/15 00:00:26;;;;;;;4.18;1.77;;;13.30;99.90;;;;;;5094941;28;20469;-67
2023/09/15 00:02:55;;;;;;;3.97;1.70;;;13.30;99.90;;;;;;5094780;28;20016;-67
2023/09/15 00:05:21;;;;;;;7.25;2.13;;;13.40;99.90;;;;;;5094878;28;20028;-67
2023/09/15 00:07:47;;;;;;;3.80;1.92;;;13.40;99.90;;;;;;5094821;28;20075;-67
2023/09/15 00:10:14;;;;;;;6.90;1.92;;;13.40;99.90;;;;;;5094851;28;20684;-67
2023/09/15 00:12:42;;;;;;;4.03;1.83;;;13.40;99.90;;;;;;5093677;28;20024;-67
2023/09/15 00:15:10;;;;;;;6.00;2.00;;;13.30;99.90;;;;;;5094538;28;20266;-67
2023/09/15 00:17:40;;;;;;;7.93;2.08;;;13.30;99.90;;;;;;5094540;28;20088;-67
2023/09/15 00:20:13;;;;;;;5.85;2.10;;;13.20;99.90;;;;;;5092901;28;20036;-66
2023/09/15 00:22:49;;;;;;;8.35;2.10;;;13.30;99.90;;;;;;5093330;28;20017;-67
2023/09/15 00:25:18;;;;;;;5.50;2.10;;;13.30;99.90;;;;;;5094301;28;20411;-66
2023/09/15 00:27:48;;;;;;;5.28;1.95;;;13.30;99.90;;;;;;5094627;28;20020;-66
2023/09/15 00:30:15;;;;;;;5.18;2.13;;;13.20;99.90;;;;;;5094186;28;20484;-66
2023/09/15 00:32:41;;;;;;;4.90;2.13;;;13.20;99.90;;;;;;5094485;28;20024;-66
2023/09/15 00:35:06;;;;;;;4.30;1.52;;;13.10;99.90;;;;;;5094343;28;20466;-66
2023/09/15 00:37:32;;;;;;;5.35;1.90;;;13.00;99.90;;;;;;5094382;28;20284;-66
2023/09/15 00:39:57;;;;;;;5.78;2.08;;;13.00;99.90;;;;;;5094201;28;20477;-66
2023/09/15 00:42:25;;;;;;;3.08;1.88;;;13.00;99.90;;;;;;5094256;28;20029;-67
2023/09/15 00:44:51;;;;;;;6.47;2.30;;;13.00;99.90;;;;;;5092937;28;20024;-66
2023/09/15 00:47:17;;;;;;;7.78;2.10;;;13.00;99.90;;;;;;5094277;28;20048;-67
2023/09/15 00:49:44;;;;;;;3.33;1.85;;;13.00;99.90;;;;;;5093934;28;20508;-66
2023/09/15 00:52:10;;;;;;;8.05;1.63;;;13.00;99.90;;;;;;5092881;28;20059;-66
2023/09/15 00:54:37;;;;;;;7.68;1.83;;;13.00;99.90;;;;;;5093770;28;20023;-66
2023/09/15 00:57:03;;;;;;;5.30;2.30;;;13.00;99.90;;;;;;5093627;28;20038;-66
2023/09/15 00:59:29;;;;;;;3.78;1.80;;;13.00;99.90;;;;;;5093871;28;20035;-66
2023/09/15 01:01:55;;;;;;;4.78;1.80;;;12.90;99.90;;;;;;5093842;28;20020;-65
2023/09/15 01:04:21;;;;;;;3.85;1.90;;;12.90;99.90;;;;;;5094026;28;20066;-66
2023/09/15 01:06:50;;;;;;;5.15;1.88;;;12.90;99.90;;;;;;5093801;28;20108;-66
2023/09/15 01:09:16;;;;;;;3.78;2.05;;;12.90;99.90;;;;;;5093567;28;20020;-67
2023/09/15 01:11:42;;;;;;;6.95;2.08;;;12.90;99.90;;;;;;5093389;28;20038;-66
2023/09/15 01:14:08;;;;;;;6.35;2.17;;;12.80;99.90;;;;;;5093309;28;20373;-66
2023/09/15 01:17:08;;;;;;;3.35;1.60;;;12.80;99.90;;;;;;5092096;28;20062;-66
2023/09/15 01:19:53;;;;;;;5.47;1.77;;;12.70;99.90;;;;;;5093669;28;20020;-65
2023/09/15 01:22:37;;;;;;;3.63;1.80;;;12.70;99.90;;;;;;5093257;28;20012;-66
2023/09/15 01:25:09;;;;;;;9.25;1.85;;;12.70;99.90;;;;;;5093181;28;20116;-67
2023/09/15 01:27:58;;;;;;;10.57;3.17;;;12.70;99.90;;;;;;5093396;28;20028;-66
2023/09/15 01:30:25;;;;;;;9.95;2.20;;;12.60;99.90;;;;;;5093383;28;20035;-66
2023/09/15 01:32:52;;;;;;;7.03;2.20;;;12.60;99.90;;;;;;5092246;28;20040;-67
2023/09/15 01:35:18;;;;;;;4.95;2.30;;;12.60;99.90;;;;;;5088661;28;20029;-67
2023/09/15 01:37:44;;;;;;;4.82;1.98;;;12.60;99.90;;;;;;5072914;28;20090;-66
2023/09/15 01:40:10;;;;;;;6.07;2.28;;;12.60;99.90;;;;;;5072616;28;20048;-66
2023/09/15 01:42:39;;;;;;;2.78;1.70;;;12.60;99.90;;;;;;5072731;28;20024;-66
2023/09/15 01:45:05;;;;;;;4.45;1.73;;;12.60;99.90;;;;;;5072530;28;20025;-65
2023/09/15 01:47:33;;;;;;;5.20;1.88;;;12.60;99.90;;;;;;5071758;28;20308;-66
2023/09/15 01:50:00;;;;;;;10.70;2.00;;;12.70;99.90;;;;;;5072833;28;20040;-65
2023/09/15 01:52:26;;;;;;;9.32;2.53;;;12.60;99.90;;;;;;5072483;28;20670;-65
2023/09/15 01:54:54;;;;;;;2.78;1.63;;;12.60;99.90;;;;;;5072654;28;20098;-66
2023/09/15 01:57:22;;;;;;;6.32;1.90;;;12.60;99.90;;;;;;5072528;28;20056;-66
2023/09/15 01:59:48;;;;;;;6.47;2.10;;;12.70;99.90;;;;;;5072296;28;20097;-66
2023/09/15 02:02:13;;;;;;;4.45;1.70;;;12.60;99.90;;;;;;5071347;28;20071;-66
2023/09/15 02:04:40;;;;;;;4.47;2.05;;;12.50;99.90;;;;;;5072202;28;20053;-66
2023/09/15 02:07:07;;;;;;;6.35;2.13;;;12.50;99.90;;;;;;5072018;28;20055;-65
2023/09/15 02:09:33;;;;;;;6.13;1.70;;;12.50;99.90;;;;;;5071084;28;20501;-65
2023/09/15 02:11:59;;;;;;;5.45;1.98;;;12.50;99.90;;;;;;5072376;28;20025;-66
2023/09/15 02:14:25;;;;;;;7.40;2.05;;;12.50;99.90;;;;;;5072178;28;20423;-65
2023/09/15 02:16:51;;;;;;;6.07;2.40;;;12.60;99.90;;;;;;5071970;28;20024;-66
2023/09/15 02:19:18;;;;;;;6.55;1.75;;;12.50;99.90;;;;;;5072014;28;20326;-66
2023/09/15 02:21:44;;;;;;;4.43;1.80;;;12.50;99.90;;;;;;5072229;28;20025;-67
2023/09/15 02:24:10;;;;;;;3.22;1.77;;;12.50;99.90;;;;;;5072062;28;20933;-66
2023/09/15 02:26:36;;;;;;;4.45;2.22;;;12.50;99.90;;;;;;5071945;28;20025;-66
2023/09/15 02:29:01;;;;;;;5.90;1.83;;;12.50;99.90;;;;;;5071850;28;20413;-67
2023/09/15 02:31:30;;;;;;;2.58;1.55;;;12.50;99.90;;;;;;5072134;28;20032;-65
2023/09/15 02:33:59;;;;;;;3.47;1.85;;;12.40;99.90;;;;;;5071773;28;20109;-67
2023/09/15 02:36:25;;;;;;;3.95;2.22;;;12.40;99.90;;;;;;5071872;28;20085;-66
2023/09/15 02:38:54;;;;;;;7.75;2.10;;;12.40;99.90;;;;;;5071660;28;20048;-67
2023/09/15 02:41:20;;;;;;;5.55;1.90;;;12.40;99.90;;;;;;5071631;28;20105;-67
2023/09/15 02:43:46;;;;;;;7.95;1.90;;;12.40;99.90;;;;;;5071594;28;20031;-66
2023/09/15 02:46:12;;;;;;;7.75;2.13;;;12.40;99.90;;;;;;5071633;28;20063;-68
2023/09/15 02:48:38;;;;;;;4.25;1.98;;;12.40;99.90;;;;;;5071914;28;20064;-67
2023/09/15 02:51:04;;;;;;;5.18;1.88;;;12.40;99.90;;;;;;5070667;28;20024;-67
2023/09/15 02:53:30;;;;;;;5.50;1.95;;;12.40;99.90;;;;;;5071565;28;20028;-66
2023/09/15 02:56:00;;;;;;;4.85;2.03;;;12.40;99.90;;;;;;5071741;28;20061;-65
2023/09/15 02:58:27;;;;;;;4.15;2.08;;;12.30;99.90;;;;;;5071582;28;20021;-66
2023/09/15 03:00:53;;;;;;;4.25;1.70;;;12.30;99.90;;;;;;5071390;28;20024;-67
2023/09/15 03:03:20;;;;;;;3.33;1.80;;;12.30;99.90;;;;;;5071418;28;20499;-66
2023/09/15 03:05:46;;;;;;;5.60;2.22;;;12.30;99.90;;;;;;5071461;28;20103;-65
2023/09/15 03:08:12;;;;;;;5.80;2.05;;;12.30;99.90;;;;;;5071084;28;20134;-67
2023/09/15 03:10:38;;;;;;;6.97;2.17;;;12.30;99.90;;;;;;5071399;28;20477;-66
2023/09/15 03:13:05;;;;;;;5.65;2.42;;;12.20;99.90;;;;;;5071105;28;20108;-67
2023/09/15 03:15:32;;;;;;;13.20;2.30;;;12.20;99.90;;;;;;5071080;28;20036;-68
2023/09/15 03:17:58;;;;;;;5.53;2.38;;;12.20;99.90;;;;;;5071638;28;20043;-65
2023/09/15 03:20:24;;;;;;;6.80;2.67;;;12.20;99.90;;;;;;5071193;28;20025;-66
2023/09/15 03:22:51;;;;;;;5.55;2.05;;;12.20;99.90;;;;;;5071342;28;20029;-66
2023/09/15 03:25:17;;;;;;;4.30;2.28;;;12.10;99.90;;;;;;5071191;28;20013;-66
2023/09/15 03:27:43;;;;;;;5.38;2.45;;;12.10;99.90;;;;;;5071075;28;20025;-66
2023/09/15 03:30:10;;;;;;;4.25;1.88;;;12.10;99.90;;;;;;5071138;28;20120;-67
2023/09/15 03:32:36;;;;;;;9.57;1.95;;;12.10;99.90;;;;;;5069937;28;20035;-67
2023/09/15 03:35:05;;;;;;;4.28;1.90;;;12.00;99.90;;;;;;5070061;28;20478;-66
2023/09/15 03:37:32;;;;;;;2.95;2.03;;;12.10;99.90;;;;;;5071216;28;20033;-66
2023/09/15 03:39:59;;;;;;;6.47;2.05;;;12.00;99.90;;;;;;5070959;28;20231;-65
2023/09/15 03:42:25;;;;;;;4.03;2.22;;;12.00;99.90;;;;;;5070012;28;20029;-67
2023/09/15 03:44:50;;;;;;;5.15;1.77;;;12.00;99.90;;;;;;5070853;28;20048;-65
2023/09/15 03:47:16;;;;;;;7.85;2.17;;;12.00;99.90;;;;;;5070962;28;20036;-65
2023/09/15 03:49:42;;;;;;;6.15;2.13;;;12.10;99.90;;;;;;5070069;28;20039;-66
2023/09/15 03:52:08;;;;;;;4.82;2.22;;;12.10;99.90;;;;;;5069985;28;20039;-66
2023/09/15 03:54:33;;;;;;;11.48;2.50;;;12.10;99.90;;;;;;5071496;28;20024;-66
2023/09/15 03:56:59;;;;;;;5.47;2.35;;;12.10;99.90;;;;;;5074617;28;20449;-66
2023/09/15 03:59:25;;;;;;;7.93;2.13;;;12.10;99.90;;;;;;5074574;28;20048;-67
2023/09/15 04:01:50;;;;;;;11.05;2.45;;;12.20;99.90;;;;;;5074407;28;20419;-66
2023/09/15 04:04:16;;;;;;;5.88;2.22;;;12.10;99.90;;;;;;5074432;28;20036;-67
2023/09/15 04:06:42;;;;;;;7.95;2.47;;;12.20;99.90;;;;;;5074257;28;20036;-67
2023/09/15 04:09:12;;;;;;;5.95;2.20;;;12.30;99.90;;;;;;5074409;28;20041;-66
2023/09/15 04:11:39;;;;;;;3.70;2.22;;;12.20;99.90;;;;;;5074376;28;20051;-66
2023/09/15 04:14:05;;;;;;;7.38;2.05;;;12.20;99.90;;;;;;5074329;28;20025;-66
2023/09/15 04:16:31;;;;;;;5.25;1.90;;;12.20;99.90;;;;;;5073046;28;20047;-66
2023/09/15 04:18:57;;;;;;;6.57;2.47;;;12.20;99.90;;;;;;5074207;28;20020;-66
2023/09/15 04:21:22;;;;;;;5.32;1.92;;;12.20;99.90;;;;;;5074123;28;20024;-67
2023/09/15 04:23:48;;;;;;;3.63;2.05;;;12.20;99.90;;;;;;5074328;28;20028;-67
2023/09/15 04:26:14;;;;;;;6.35;2.35;;;12.20;99.90;;;;;;5074115;28;20121;-67
2023/09/15 04:28:40;;;;;;;7.88;2.50;;;12.20;99.90;;;;;;5073969;28;20035;-67
2023/09/15 04:31:05;;;;;;;3.75;2.38;;;12.20;99.90;;;;;;5074039;28;20035;-67
2023/09/15 04:33:31;;;;;;;5.20;2.50;;;12.20;99.90;;;;;;5073978;28;20107;-66
2023/09/15 04:35:56;;;;;;;5.43;2.20;;;12.20;99.90;;;;;;5072708;28;20039;-67
2023/09/15 04:38:22;;;;;;;5.82;2.50;;;12.20;99.90;;;;;;5073848;28;20028;-67
2023/09/15 04:40:48;;;;;;;4.85;2.45;;;12.20;99.90;;;;;;5073637;28;20016;-67
2023/09/15 04:43:16;;;;;;;6.22;2.17;;;12.20;99.90;;;;;;5073614;28;20020;-65
2023/09/15 04:45:43;;;;;;;;;;;12.20;99.90;;;;;;5073042;28;20051;-66
2023/09/15 04:48:09;;;;;;;8.02;2.63;;;12.30;99.90;;;;;;5073917;28;19904;-67
2023/09/15 04:50:37;;;;;;;4.35;2.30;;;12.20;99.90;;;;;;5073965;28;20024;-66
2023/09/15 04:53:06;;;;;;;5.78;2.35;;;12.20;99.90;;;;;;5073543;28;20033;-66
2023/09/15 04:55:32;;;;;;;8.50;2.35;;;12.20;99.90;;;;;;5073737;28;20024;-65
2023/09/15 04:57:58;;;;;;;4.38;2.33;;;12.20;99.90;;;;;;5073434;28;20016;-66
2023/09/15 05:00:26;;;;;;;5.75;2.58;;;12.20;99.90;;;;;;5073539;28;20504;-67
2023/09/15 05:02:52;;;;;;;;;;;12.20;99.90;;;;;;5073920;28;20031;-67
2023/09/15 05:05:18;;;;;;;9.15;2.40;;;12.20;99.90;;;;;;5073327;28;19905;-67
2023/09/15 05:07:44;;;;;;;7.60;2.42;;;12.20;99.90;;;;;;5072030;28;20131;-67
2023/09/15 05:10:10;;;;;;;7.20;2.50;;;12.30;99.90;;;;;;5073196;28;20051;-67
2023/09/15 05:12:35;;;;;;;9.38;2.67;;;12.20;99.90;;;;;;5073167;28;20510;-67
2023/09/15 05:15:03;;;;;;;7.40;2.80;;;12.20;99.90;;;;;;5073133;28;20036;-67
2023/09/15 05:17:29;;;;;;;6.87;2.90;;;12.30;99.90;;;;;;5073285;28;20021;-67
2023/09/15 05:19:56;;;;;;;7.03;2.60;;;12.20;99.90;;;;;;5073456;28;20381;-67
2023/09/15 05:22:22;;;;;;;12.38;2.90;;;12.30;99.90;;;;;;5071963;28;20458;-66
2023/09/15 05:24:48;;;;;;;9.88;3.22;;;12.30;99.90;;;;;;5072798;28;20095;-68
2023/09/15 05:27:14;;;;;;;7.15;3.22;;;12.20;99.90;;;;;;5073330;28;20440;-67
2023/09/15 05:29:39;;;;;;;12.48;2.80;;;12.20;99.90;;;;;;5072859;28;20020;-67
2023/09/15 05:32:05;;;;;;;6.10;2.55;;;12.20;99.90;;;;;;5072720;28;20465;-66
2023/09/15 05:34:31;;;;;;;5.22;2.65;;;12.20;99.90;;;;;;5072508;28;20379;-67
2023/09/15 05:36:57;;;;;;;9.63;2.90;;;12.30;99.90;;;;;;5072867;28;20486;-67
2023/09/15 05:39:23;;;;;;;4.78;2.80;;;12.30;99.90;;;;;;5072890;28;20024;-67
2023/09/15 05:41:48;;;;;;;7.28;3.00;;;12.30;99.90;;;;;;5072762;28;20028;-68
2023/09/15 05:44:16;;;;;;;12.95;3.08;;;12.30;99.90;;;;;;5072478;28;20024;-67
2023/09/15 05:46:42;;;;;;;10.23;3.15;;;12.30;99.90;;;;;;5072391;28;20377;-68
2023/09/15 05:49:08;;;;;;;7.32;2.92;;;12.30;99.90;;;;;;5072403;28;20024;-68
2023/09/15 05:51:34;;;;;;;8.00;3.10;;;12.30;99.90;;;;;;5072682;28;20032;-66
2023/09/15 05:53:59;;;;;;;14.18;3.00;;;12.40;99.90;;;;;;5071241;28;20469;-68
2023/09/15 05:56:25;;;;;;;5.90;2.78;;;12.40;99.90;;;;;;5072623;28;20024;-67
2023/09/15 05:58:51;;;;;;;6.32;3.20;;;12.50;99.90;;;;;;5072402;28;20350;-67
2023/09/15 06:01:19;;;;;;;5.53;3.25;;;12.50;99.90;;;;;;5072049;28;20459;-67
2023/09/15 06:03:45;;;;;;;7.78;2.97;;;12.60;99.90;;;;;;5072202;28;20025;-66
2023/09/15 06:06:11;;;;;;;11.25;3.47;;;12.50;99.90;;;;;;5072116;28;20090;-66
2023/09/15 06:08:37;;;;;;;7.13;2.90;;;12.60;99.90;;;;;;5071019;28;20056;-65
2023/09/15 06:11:03;;;;;;;4.90;2.45;;;12.70;99.90;;;;;;5072003;28;20020;-65
2023/09/15 06:13:29;;;;;;;12.90;5.10;;;12.70;99.90;;;;;;5071812;28;20115;-66
2023/09/15 06:15:55;;;;;;;8.82;4.30;;;12.70;99.90;;;;;;5071843;28;20071;-65
2023/09/15 06:18:21;;;;;;;12.30;4.35;;;12.80;99.90;;;;;;5071099;28;20039;-66
2023/09/15 06:20:48;;;;;;;9.38;3.97;;;12.80;99.90;;;;;;5071641;28;20028;-66
2023/09/15 06:23:14;;;;;;;9.80;5.25;;;12.90;99.90;;;;;;5068320;28;20029;-67
2023/09/15 06:25:40;;;;;;;8.85;3.47;;;13.00;99.90;;;;;;5072115;28;20086;-66
2023/09/15 06:28:07;;;;;;;6.60;3.35;;;13.10;99.90;;;;;;5071076;28;20025;-66
2023/09/15 06:30:33;;;;;;;12.25;4.88;;;13.20;99.90;;;;;;5071938;28;20107;-68
2023/09/15 06:32:58;;;;;;;6.82;3.20;;;13.30;99.90;;;;;;5070607;28;20534;-66
2023/09/15 06:35:25;;;;;;;11.88;2.92;;;13.30;99.90;;;;;;5071917;28;20086;-67
2023/09/15 06:37:51;;;;;;;10.00;3.28;;;13.30;99.90;;;;;;5071382;28;20024;-68
2023/09/15 06:40:17;;;;;;;8.43;2.90;;;13.40;99.90;;;;;;5071755;28;20032;-67
2023/09/15 06:42:43;;;;;;;12.27;3.42;;;13.50;99.90;;;;;;5071555;28;20028;-68
2023/09/15 06:45:10;;;;;;;9.00;3.45;;;13.60;99.90;;;;;;5071665;28;20325;-68
2023/09/15 06:47:36;;;;;;;9.32;3.65;;;13.60;99.90;;;;;;5070250;28;20024;-68
2023/09/15 06:50:03;;;;;;;13.45;6.50;;;13.70;99.90;;;;;;5071654;28;20036;-67
2023/09/15 06:52:30;;;;;;;17.75;7.10;;;13.70;99.90;;;;;;5070217;28;20442;-67
2023/09/15 06:54:56;;;;;;;14.73;4.43;;;13.80;99.90;;;;;;5071128;28;20028;-66
2023/09/15 06:57:22;;;;;;;13.27;3.53;;;13.90;99.90;;;;;;5070978;28;20039;-68
2023/09/15 06:59:47;;;;;;;7.68;3.08;;;13.90;99.90;;;;;;5070024;28;20035;-67
2023/09/15 07:02:13;;;;;;;9.80;4.22;;;14.00;99.90;;;;;;5071009;28;20174;-69
2023/09/15 07:04:39;;;;;;;9.30;3.67;;;14.10;99.90;;;;;;5071583;28;20056;-67
2023/09/15 07:07:04;;;;;;;8.63;3.13;;;14.10;99.90;;;;;;5070688;28;20056;-67
2023/09/15 07:09:30;;;;;;;5.95;2.92;;;14.30;99.90;;;;;;5070958;28;20036;-67
2023/09/15 07:11:56;;;;;;;5.43;2.70;;;14.30;99.90;;;;;;5070752;28;20036;-68
2023/09/15 07:14:21;;;;;;;9.45;3.40;;;14.40;99.90;;;;;;5074387;28;20047;-67
2023/09/15 07:16:48;;;;;;;8.02;2.83;;;14.40;99.90;;;;;;5090100;28;20089;-67
2023/09/15 07:19:14;;;;;;;9.93;2.70;;;14.50;99.90;;;;;;5091370;28;20059;-66
2023/09/15 07:21:41;;;;;;;12.30;3.42;;;14.60;99.90;;;;;;5091452;28;20418;-67
2023/09/15 07:24:10;;;;;;;12.23;3.15;;;14.60;99.90;;;;;;5091787;28;20104;-68
2023/09/15 07:26:36;;;;;;;10.52;3.47;;;14.70;99.90;;;;;;5091299;28;20051;-68
2023/09/15 07:29:03;;;;;;;10.35;3.25;;;14.80;99.90;;;;;;5091653;28;20450;-69
2023/09/15 07:31:34;;;;;;;9.73;2.95;;;14.80;99.90;;;;;;5094907;28;20238;-68
2023/09/15 07:34:00;;;;;;;12.70;2.83;;;14.90;99.90;;;;;;5095745;28;20123;-68
2023/09/15 07:36:26;;;;;;;13.20;3.97;;;14.90;99.90;;;;;;5094409;28;20111;-68
2023/09/15 07:38:52;;;;;;;12.07;3.58;;;15.00;99.90;;;;;;5095385;28;20028;-67
2023/09/15 07:41:18;;;;;;;8.82;2.90;;;15.10;99.90;;;;;;5095257;28;20454;-68
2023/09/15 07:43:45;;;;;;;5.00;2.42;;;15.10;99.90;;;;;;5094813;28;20111;-69
2023/09/15 07:46:12;;;;;;;10.63;3.20;;;15.20;99.90;;;;;;5094206;28;20020;-69
2023/09/15 07:48:38;;;;;;;9.17;2.80;;;15.20;99.90;;;;;;5095310;28;20031;-68
2023/09/15 07:51:03;;;;;;;9.43;3.00;;;15.30;99.90;;;;;;5095130;28;20032;-67
2023/09/15 07:53:29;;;;;;;7.93;2.67;;;15.30;99.90;;;;;;5093796;28;20035;-68
2023/09/15 07:55:55;;;;;;;7.85;3.28;;;15.40;99.90;;;;;;5094514;28;20067;-68
2023/09/15 07:58:20;;;;;;;6.28;2.78;;;15.50;99.90;;;;;;5094436;28;20031;-68
2023/09/15 08:00:46;;;;;;;6.15;2.80;;;15.50;99.90;;;;;;5094566;28;20028;-68
2023/09/15 08:03:12;;;;;;;7.22;2.90;;;15.50;99.90;;;;;;5094996;28;20043;-68
2023/09/15 08:05:37;;;;;;;9.00;2.80;;;15.70;99.90;;;;;;5094500;28;20378;-68
2023/09/15 08:08:03;;;;;;;8.82;3.00;;;15.70;99.90;;;;;;5094176;28;20052;-68
2023/09/15 08:10:29;;;;;;;13.13;3.65;;;15.70;99.90;;;;;;5094325;28;20044;-68
2023/09/15 08:12:55;;;;;;;7.10;3.47;;;15.90;99.90;;;;;;5094648;28;20102;-68
2023/09/15 08:15:21;;;;;;;11.15;3.05;;;16.00;99.90;;;;;;5093174;28;20518;-68
2023/09/15 08:17:47;;;;;;;10.68;3.38;;;16.10;99.90;;;;;;5093356;28;20062;-69
2023/09/15 08:20:17;;;;;;;7.32;2.97;;;16.20;99.90;;;;;;5093940;28;20028;-71
2023/09/15 08:22:43;;;;;;;9.10;2.97;;;16.40;99.90;;;;;;5094297;28;20048;-68
2023/09/15 08:25:12;;;;;;;8.35;3.08;;;17.40;99.90;;;;;;5093185;28;20058;-69
2023/09/15 08:27:38;;;;;;;4.57;2.25;;;18.50;99.90;;;;;;5094037;28;20123;-69
2023/09/15 08:30:05;;;;;;;5.00;2.60;;;19.60;98.50;;;;;;5094296;28;20409;-69
2023/09/15 08:32:31;;;;;;;10.25;2.85;;;20.80;98.30;;;;;;5089811;28;20038;-69
2023/09/15 08:34:58;;;;;;;7.47;2.30;;;21.80;96.40;;;;;;5072390;28;20048;-69
2023/09/15 08:37:24;;;;;;;9.95;2.65;;;22.60;94.40;;;;;;5073115;28;20029;-67
2023/09/15 08:39:49;;;;;;;9.43;2.40;;;23.80;94.70;;;;;;5073936;28;20048;-68
2023/09/15 08:42:33;;;;;;;7.65;2.45;;;25.10;92.60;;;;;;5073646;28;20028;-68
2023/09/15 08:45:01;;;;;;;8.80;2.28;;;25.70;90.30;;;;;;5073916;28;20029;-68
2023/09/15 08:47:31;;;;;;;6.53;2.28;;;26.70;89.70;;;;;;5073591;28;20078;-70
2023/09/15 08:49:58;;;;;;;7.68;2.40;;;27.00;87.20;;;;;;5074122;28;20036;-67
2023/09/15 08:52:24;;;;;;;8.38;2.60;;;27.50;84.10;;;;;;5072814;28;20044;-71
2023/09/15 08:54:51;;;;;;;4.88;2.38;;;27.60;83.00;;;;;;5072632;28;20031;-68
2023/09/15 08:57:17;;;;;;;8.05;2.88;;;28.00;82.50;;;;;;5072574;28;20458;-68
2023/09/15 08:59:44;;;;;;;6.80;2.20;;;28.70;79.80;;;;;;5072645;28;20024;-69
2023/09/15 09:02:12;;;;;;;5.22;2.50;;;28.90;76.90;;;;;;5072365;28;20383;-69
2023/09/15 09:04:38;;;;;;;7.72;2.75;;;29.30;76.20;;;;;;5073581;28;20028;-67
2023/09/15 09:07:05;;;;;;;5.03;2.30;;;29.90;75.80;;;;;;5073331;28;20079;-68
2023/09/15 09:09:31;;;;;;;8.00;2.63;;;30.70;74.90;;;;;;5073364;28;20032;-68
2023/09/15 09:11:57;;;;;;;7.20;1.92;;;31.10;71.60;;;;;;5073828;28;20024;-69
2023/09/15 09:14:24;;;;;;;4.10;2.13;;;30.80;69.90;;;;;;5073344;28;20021;-68
2023/09/15 09:16:51;;;;;;;5.22;2.47;;;31.00;69.20;;;;;;5073110;28;20025;-69
2023/09/15 09:19:17;;;;;;;10.10;2.38;;;31.30;66.90;;;;;;5073272;28;20082;-68
2023/09/15 09:21:42;;;;;;;7.30;2.40;;;31.30;67.40;;;;;;5073109;28;20028;-69
2023/09/15 09:24:09;;;;;;;7.57;2.28;;;31.80;70.20;;;;;;5073149;28;20039;-68
2023/09/15 09:26:35;;;;;;;8.18;2.33;;;31.60;64.70;;;;;;5072031;28;20358;-69
2023/09/15 09:29:02;;;;;;;6.05;2.17;;;31.90;65.50;;;;;;5073137;28;20119;-68
2023/09/15 09:31:28;;;;;;;5.20;2.27;;;31.90;64.70;;;;;;5071952;28;20028;-69
2023/09/15 09:33:55;;;;;;;9.27;2.97;;;32.40;64.30;;;;;;5072616;28;20052;-68
2023/09/15 09:36:21;;;;;;;6.68;2.30;;;33.00;61.40;;;;;;5072768;28;20107;-68
2023/09/15 09:38:49;;;;;;;4.28;2.45;;;32.90;60.80;;;;;;5073070;28;20028;-69
2023/09/15 09:41:20;;;;;;;6.07;2.25;;;32.90;61.00;;;;;;5073024;28;20063;-68
2023/09/15 09:43:47;;;;;;;8.40;2.55;;;33.30;60.40;;;;;;5072462;28;20024;-69
2023/09/15 09:46:19;;;;;;;6.03;2.20;;;33.30;58.80;;;;;;5072648;28;20060;-69
2023/09/15 09:48:46;;;;;;;10.73;2.03;;;33.50;58.10;;;;;;5072473;28;20358;-69
2023/09/15 09:51:13;;;;;;;8.23;3.15;;;34.30;57.90;;;;;;5071574;28;20035;-71
2023/09/15 09:53:39;;;;;;;6.10;2.25;;;34.60;57.80;;;;;;5070656;28;20033;-70
2023/09/15 09:56:05;;;;;;;8.63;2.90;;;34.90;57.30;;;;;;5072062;28;20024;-71
2023/09/15 09:58:36;;;;;;;5.50;2.05;;;34.90;56.90;;;;;;5069646;28;20103;-68
2023/09/15 10:01:06;;;;;;;6.60;2.38;;;34.80;58.60;;;;;;5090633;28;20043;-70
2023/09/15 10:03:33;;;;;;;10.52;2.67;;;34.60;56.10;;;;;;5092624;28;20031;-70
2023/09/15 10:05:59;;;;;;;6.53;2.63;;;35.30;55.10;;;;;;5091477;28;20024;-70
2023/09/15 10:08:26;;;;;;;3.10;2.13;;;36.10;55.50;;;;;;5074640;28;20466;-69
2023/09/15 10:10:53;;;;;;;8.00;2.57;;;35.80;53.60;;;;;;5092701;28;20024;-68
2023/09/15 10:13:19;;;;;;;9.07;3.10;;;36.10;54.60;;;;;;5092448;28;20032;-69
2023/09/15 10:15:46;;;;;;;6.45;3.28;;;37.20;52.60;;;;;;5092291;28;20518;-68
2023/09/15 10:18:15;;;;;;;7.57;2.95;;;36.70;52.20;;;;;;5092639;28;20028;-69
2023/09/15 10:20:43;;;;;;;4.28;2.25;;;36.30;50.70;;;;;;5092255;28;20035;-70
2023/09/15 10:23:12;;;;;;;7.03;2.80;;;35.90;53.30;;;;;;5092006;28;20105;-69
2023/09/15 10:25:48;;;;;;;5.80;2.90;;;35.70;51.20;;;;;;5092080;28;20028;-70
2023/09/15 10:28:15;;;;;;;7.20;2.73;;;35.70;51.60;;;;;;5092161;28;20028;-68
2023/09/15 10:30:41;;;;;;;6.07;2.88;;;36.80;51.90;;;;;;5092144;28;20028;-68
2023/09/15 10:33:09;;;;;;;7.88;2.88;;;37.30;49.80;;;;;;5091957;28;20039;-69
2023/09/15 10:35:38;;;;;;;8.77;2.70;;;37.70;49.20;;;;;;5092090;28;20026;-67
2023/09/15 10:38:04;;;;;;;6.55;3.47;;;37.30;48.00;;;;;;5092240;28;20031;-69
2023/09/15 10:40:46;;;;;;;9.57;2.75;;;36.50;49.00;;;;;;5091919;28;20043;-68
2023/09/15 10:43:12;;;;;;;6.07;2.42;;;36.10;51.30;;;;;;5091656;28;20526;-69
2023/09/15 10:45:38;;;;;;;4.97;2.40;;;36.00;49.50;;;;;;5092126;28;20188;-69
2023/09/15 10:48:05;;;;;;;6.43;2.90;;;35.80;50.50;;;;;;5092190;28;20323;-69
2023/09/15 10:50:33;;;;;;;5.93;2.30;;;36.40;49.20;;;;;;5092047;28;20081;-68
2023/09/15 10:53:09;;;;;;;6.28;3.05;;;36.30;50.20;;;;;;5090715;28;20028;-68
2023/09/15 10:55:35;;;;;;;7.33;2.23;;;36.80;50.00;;;;;;5091739;28;20513;-68
2023/09/15 10:58:04;;;;;;;3.90;2.42;;;36.50;50.10;;;;;;5091425;28;20032;-68
2023/09/15 11:00:31;;;;;;;7.85;3.28;;;36.20;48.40;;;;;;5091389;28;20103;-68
2023/09/15 11:02:58;;;;;;;6.13;2.90;;;35.80;49.60;;;;;;5091589;28;20040;-67
2023/09/15 11:05:27;;;;;;;7.80;2.05;;;36.00;49.30;;;;;;5091108;28;20031;-67
2023/09/15 11:07:56;;;;;;;4.22;2.38;;;37.00;48.10;;;;;;5090083;28;20055;-67
2023/09/15 11:10:34;;;;;;;3.92;2.47;;;36.90;48.90;;;;;;5091237;28;20028;-67
2023/09/15 11:13:01;;;;;;;4.18;2.05;;;36.10;47.10;;;;;;5091093;28;20032;-67
2023/09/15 11:15:28;;;;;;;5.25;2.42;;;35.90;47.60;;;;;;5091349;28;20027;-67
2023/09/15 11:17:54;;;;;;;5.53;2.78;;;35.60;47.20;;;;;;5091111;28;20020;-68
2023/09/15 11:20:20;;;;;;;4.28;2.60;;;35.20;48.00;;;;;;5091238;28;20020;-68
2023/09/15 11:22:46;;;;;;;6.80;2.92;;;35.50;49.00;;;;;;5090090;28;20020;-67
2023/09/15 11:25:13;;;;;;;10.20;3.08;;;36.30;47.30;;;;;;5091295;28;20070;-67
2023/09/15 11:27:39;;;;;;;4.47;3.00;;;35.90;47.50;;;;;;5090955;28;20560;-69
2023/09/15 11:30:05;;;;;;;7.75;6.25;;;34.90;48.30;;;;;;5091323;28;20304;-70
2023/09/15 11:32:37;;;;;;;4.68;2.45;;;33.60;50.00;;;;;;5090805;28;20095;-69
2023/09/15 11:35:05;;;;;;;5.00;2.47;;;32.80;51.20;;;;;;5090788;28;20032;-68
2023/09/15 11:37:31;;;;;;;9.30;2.78;;;32.10;51.80;;;;;;5078168;28;20029;-68
2023/09/15 11:39:57;;;;;;;5.82;2.40;;;31.60;52.70;;;;;;5070975;28;20025;-68
2023/09/15 11:42:24;;;;;;;5.53;2.70;;;31.30;53.20;;;;;;5070202;28;20035;-68
2023/09/15 11:44:50;;;;;;;6.00;2.80;;;30.30;55.40;;;;;;5071131;28;20031;-69
2023/09/15 11:47:17;;;;;;;5.82;3.20;;;29.80;55.30;;;;;;5071233;28;20024;-67
2023/09/15 11:49:43;;;;;;;4.93;2.92;;;29.40;55.40;;;;;;5071003;28;20052;-68
2023/09/15 11:52:10;;;;;;;6.97;2.78;;;29.30;56.10;;;;;;5069416;28;20032;-67
2023/09/15 11:54:36;;;;;;;7.80;2.80;;;28.80;57.10;;;;;;5071310;28;20024;-69
2023/09/15 11:57:02;;;;;;;7.85;3.20;;;28.90;57.50;;;;;;5070672;28;20025;-67
2023/09/15 11:59:28;;;;;;;5.72;2.60;;;28.40;58.70;;;;;;5069864;28;20060;-68
2023/09/15 12:01:58;;;;;;;5.32;2.50;;;28.20;59.20;;;;;;5069678;28;20059;-68
2023/09/15 12:04:28;;;;;;;6.35;2.50;;;28.00;59.40;;;;;;5070874;28;20463;-69
2023/09/15 12:06:54;;;;;;;6.20;2.65;;;27.70;61.30;;;;;;5069305;28;20040;-69
2023/09/15 12:09:22;;;;;;;7.10;3.03;;;27.80;60.30;;;;;;5070631;28;20111;-68
2023/09/15 12:11:47;;;;;;;;;;;27.50;60.90;;;;;;5071072;28;20036;-70
2023/09/15 12:14:13;;;;;;;6.57;2.97;;;27.30;62.40;;;;;;5070701;28;19919;-71
2023/09/15 12:16:42;;;;;;;5.05;2.97;;;27.30;62.60;;;;;;5072565;28;20093;-70
2023/09/15 12:19:10;;;;;;;6.53;2.55;;;27.10;62.80;;;;;;5074441;28;20073;-69
2023/09/15 12:21:36;;;;;;;5.40;2.72;;;27.20;62.50;;;;;;5074060;28;20020;-70
2023/09/15 12:24:11;;;;;;;5.35;2.95;;;27.30;61.70;;;;;;5074423;28;20035;-70
2023/09/15 12:26:39;;;;;;;5.63;2.55;;;27.00;62.40;;;;;;5074151;28;20025;-70
2023/09/15 12:29:04;;;;;;;5.28;2.72;;;26.90;63.80;;;;;;5074163;28;20028;-71
2023/09/15 12:31:47;;;;;;;5.20;2.70;;;26.70;63.70;;;;;;5074030;28;20038;-70
2023/09/15 12:34:19;;;;;;;6.80;3.40;;;26.50;64.20;;;;;;5073226;28;20093;-71
2023/09/15 12:36:46;;;;;;;11.32;5.85;;;26.50;64.70;;;;;;5073678;28;20031;-71
2023/09/15 12:39:13;;;;;;;8.38;4.75;;;26.50;65.00;;;;;;5073868;28;20024;-70
2023/09/15 12:41:38;;;;;;;4.82;2.88;;;26.50;64.20;;;;;;5073590;28;20175;-68
2023/09/15 12:44:04;;;;;;;6.70;2.47;;;26.30;63.40;;;;;;5073824;28;20404;-69